Time;durP1;ratioP1;P1;durP2;ratioP2;P2;SDS_P1;SDS_P2;PMS_P1;PMS_P2;Temp;Humidity;BMP_temperature;BMP_pressure;BME280_temperature;BME280_humidity;BME280_pressure;Samples;Min_cycle;Max_cycle;Signal;HPM_P1;HPM_P2
2021/07/15 00:00:18;;;;;;;12.35;5.53;;;25.20;33.50;;;;;;4328572;33;20062;-35
2021/07/15 00:02:45;;;;;;;14.52;5.60;;;25.20;33.50;;;;;;4298741;33;20567;-35
2021/07/15 00:05:13;;;;;;;21.35;5.68;;;25.30;33.70;;;;;;4287241;33;20079;-35
2021/07/15 00:07:39;;;;;;;16.67;6.32;;;25.30;33.90;;;;;;4280037;33;20094;-36
2021/07/15 00:10:23;;;;;;;18.80;6.87;;;25.40;33.80;;;;;;4313633;33;20235;-35
2021/07/15 00:12:51;;;;;;;16.10;7.07;;;25.40;33.70;;;;;;4302350;33;20086;-36
2021/07/15 00:15:21;;;;;;;15.50;6.68;;;25.30;34.10;;;;;;4277780;33;20060;-36
2021/07/15 00:17:48;;;;;;;19.70;9.13;;;25.10;33.30;;;;;;4313804;33;20122;-35
2021/07/15 00:20:16;;;;;;;18.15;6.93;;;24.90;33.50;;;;;;4301145;33;20593;-36
2021/07/15 00:22:43;;;;;;;17.80;8.00;;;24.70;34.20;;;;;;4315815;33;20059;-35
2021/07/15 00:25:12;;;;;;;18.55;7.78;;;24.70;34.00;;;;;;4330773;33;20094;-35
2021/07/15 00:27:39;;;;;;;19.02;7.37;;;24.70;34.10;;;;;;4330640;33;20082;-35
2021/07/15 00:30:06;;;;;;;21.55;8.43;;;24.70;34.10;;;;;;4342948;33;20500;-36
2021/07/15 00:32:33;;;;;;;18.27;8.48;;;24.70;33.90;;;;;;4342344;33;20105;-35
2021/07/15 00:35:00;;;;;;;22.50;10.25;;;24.70;33.80;;;;;;4343446;33;20090;-35
2021/07/15 00:37:27;;;;;;;22.83;9.48;;;24.60;33.90;;;;;;4300759;33;20094;-35
2021/07/15 00:39:53;;;;;;;19.90;8.70;;;24.50;34.00;;;;;;4313601;33;20083;-35
2021/07/15 00:42:20;;;;;;;20.55;8.10;;;24.40;34.20;;;;;;4313143;33;20074;-34
2021/07/15 00:44:46;;;;;;;21.37;8.30;;;24.30;34.40;;;;;;4300981;33;20108;-34
2021/07/15 00:47:13;;;;;;;23.15;8.55;;;24.20;34.50;;;;;;4312581;33;20068;-35
2021/07/15 00:49:39;;;;;;;25.65;9.73;;;24.10;34.70;;;;;;4298423;33;20072;-35
2021/07/15 00:52:11;;;;;;;19.23;7.82;;;24.10;35.00;;;;;;4271663;33;20442;-35
2021/07/15 00:54:42;;;;;;;17.50;7.30;;;24.00;35.10;;;;;;4284140;33;20074;-36
2021/07/15 00:57:08;;;;;;;18.70;8.07;;;24.10;35.30;;;;;;4285992;33;20107;-34
2021/07/15 00:59:35;;;;;;;19.25;7.40;;;24.10;35.30;;;;;;4286507;33;20169;-36
2021/07/15 01:02:02;;;;;;;17.55;9.50;;;24.20;35.40;;;;;;4298035;33;20063;-35
2021/07/15 01:04:30;;;;;;;13.40;6.80;;;24.30;35.30;;;;;;4298561;33;20074;-35
2021/07/15 01:06:56;;;;;;;14.02;6.82;;;24.40;35.20;;;;;;4298925;33;20076;-35
2021/07/15 01:09:23;;;;;;;15.68;6.75;;;24.60;35.00;;;;;;4325848;33;20185;-37
2021/07/15 01:12:37;;;;;;;21.15;7.70;;;24.70;34.90;;;;;;4315353;33;20071;-36
2021/07/15 01:15:14;;;;;;;23.98;9.32;;;24.70;35.00;;;;;;4302374;33;20133;-35
2021/07/15 01:18:33;;;;;;;25.42;9.65;;;24.70;35.00;;;;;;4315194;33;20108;-36
2021/07/15 01:21:57;;;;;;;24.50;9.02;;;24.60;35.30;;;;;;4317378;33;20063;-36
2021/07/15 01:24:51;;;;;;;21.77;8.75;;;24.50;35.90;;;;;;4304186;33;20079;-37
2021/07/15 01:27:27;;;;;;;23.08;9.60;;;24.30;36.50;;;;;;4329919;33;20061;-36
2021/07/15 01:30:12;;;;;;;23.50;9.50;;;24.20;37.20;;;;;;4330479;33;20063;-36
2021/07/15 01:33:06;;;;;;;;;;;24.20;37.40;;;;;;4344492;33;20063;-36
2021/07/15 01:36:04;;;;;;;23.08;8.48;;;24.20;37.20;;;;;;4330380;33;19953;-36
2021/07/15 01:38:36;;;;;;;24.52;8.18;;;24.30;37.50;;;;;;4331755;33;20063;-36
2021/07/15 01:41:09;;;;;;;26.00;8.63;;;24.40;37.30;;;;;;4318662;33;20054;-36
2021/07/15 01:43:44;;;;;;;25.00;8.90;;;24.60;37.10;;;;;;4330153;33;20520;-36
2021/07/15 01:46:12;;;;;;;26.27;9.60;;;24.90;36.70;;;;;;4306153;33;20063;-35
2021/07/15 01:48:41;;;;;;;22.95;9.48;;;25.20;36.30;;;;;;4330439;33;20549;-36
2021/07/15 01:51:08;;;;;;;22.95;11.35;;;25.40;36.00;;;;;;4330279;33;20176;-36
2021/07/15 01:53:34;;;;;;;32.90;19.23;;;25.80;35.80;;;;;;4330375;33;20062;-35
2021/07/15 01:56:01;;;;;;;27.10;9.68;;;26.20;35.40;;;;;;4330208;33;20081;-36
2021/07/15 01:58:29;;;;;;;25.42;9.35;;;26.60;35.00;;;;;;4329808;33;20071;-35
2021/07/15 02:00:57;;;;;;;19.42;9.75;;;27.00;34.60;;;;;;4305834;33;20221;-35
2021/07/15 02:03:23;;;;;;;20.70;8.20;;;27.40;34.20;;;;;;4317826;33;20077;-35
2021/07/15 02:05:49;;;;;;;20.80;7.95;;;27.80;33.50;;;;;;4305694;33;20117;-36
2021/07/15 02:08:16;;;;;;;26.83;9.35;;;28.30;33.20;;;;;;4315258;33;20060;-36
2021/07/15 02:10:43;;;;;;;25.33;6.95;;;28.70;32.80;;;;;;4291718;33;20134;-36
2021/07/15 02:13:09;;;;;;;8.50;3.85;;;29.10;32.30;;;;;;4315452;33;20591;-36
2021/07/15 02:15:37;;;;;;;8.70;4.15;;;29.40;31.30;;;;;;4303086;33;20095;-36
2021/07/15 02:18:03;;;;;;;9.98;3.10;;;29.50;30.70;;;;;;4315357;33;20090;-36
2021/07/15 02:20:30;;;;;;;9.63;5.28;;;29.50;30.00;;;;;;4291508;33;20129;-36
2021/07/15 02:22:56;;;;;;;12.45;3.92;;;29.50;30.10;;;;;;4315076;33;20063;-36
2021/07/15 02:25:23;;;;;;;9.77;3.62;;;29.40;30.00;;;;;;4315292;33;20067;-36
2021/07/15 02:27:51;;;;;;;28.92;8.18;;;29.30;29.70;;;;;;4303081;33;20457;-36
2021/07/15 02:30:18;;;;;;;7.82;1.90;;;29.20;29.60;;;;;;4291673;33;20070;-36
2021/07/15 02:32:57;;;;;;;12.18;2.78;;;29.10;29.50;;;;;;4315366;33;20085;-36
2021/07/15 02:35:28;;;;;;;9.60;2.42;;;29.10;29.60;;;;;;4292436;33;20554;-36
2021/07/15 02:37:57;;;;;;;4.62;1.77;;;29.10;29.50;;;;;;4315070;33;20145;-36
2021/07/15 02:40:23;;;;;;;6.43;2.00;;;29.20;29.40;;;;;;4296841;33;20139;-36
2021/07/15 02:42:50;;;;;;;4.55;1.62;;;29.20;29.70;;;;;;4284827;33;20080;-36
2021/07/15 02:45:20;;;;;;;11.85;2.37;;;29.30;29.60;;;;;;4284794;33;20071;-36
2021/07/15 02:47:47;;;;;;;5.87;2.40;;;29.30;29.30;;;;;;4285225;33;20159;-37
2021/07/15 02:50:15;;;;;;;9.40;2.37;;;29.30;29.30;;;;;;4284846;33;20242;-36
2021/07/15 02:52:42;;;;;;;10.60;2.42;;;29.30;29.50;;;;;;4284961;33;20082;-37
2021/07/15 02:55:10;;;;;;;6.85;2.10;;;29.30;29.60;;;;;;4284858;33;20058;-36
2021/07/15 02:58:14;;;;;;;11.43;5.18;;;29.30;29.70;;;;;;4287346;33;20554;-36
2021/07/15 03:01:11;;;;;;;10.52;4.62;;;29.50;30.80;;;;;;4296936;33;20091;-36
2021/07/15 03:04:14;;;;;;;12.32;4.95;;;29.80;30.90;;;;;;4286622;33;20536;-36
2021/07/15 03:06:43;;;;;;;15.48;3.97;;;30.40;30.40;;;;;;4269957;33;20092;-36
2021/07/15 03:09:13;;;;;;;12.27;3.55;;;31.10;29.90;;;;;;4269445;33;20580;-36
2021/07/15 03:12:13;;;;;;;14.27;3.22;;;31.60;29.30;;;;;;4269910;33;20063;-36
2021/07/15 03:14:43;;;;;;;10.30;2.60;;;32.00;28.50;;;;;;4257529;33;20084;-36
2021/07/15 03:17:16;;;;;;;11.23;2.92;;;32.40;28.00;;;;;;4253462;33;20175;-36
2021/07/15 03:19:46;;;;;;;7.50;2.95;;;32.60;27.50;;;;;;4241882;33;20081;-36
2021/07/15 03:22:12;;;;;;;7.40;2.95;;;32.90;27.30;;;;;;4242144;33;20090;-35
2021/07/15 03:24:52;;;;;;;10.93;2.67;;;33.10;27.00;;;;;;4241729;33;20072;-35
2021/07/15 03:27:19;;;;;;;10.13;2.35;;;33.40;26.90;;;;;;4242156;33;20087;-35
2021/07/15 03:29:46;;;;;;;10.40;2.53;;;33.80;26.70;;;;;;4241376;33;20163;-36
2021/07/15 03:32:13;;;;;;;8.23;1.83;;;34.10;26.30;;;;;;4241895;33;20084;-35
2021/07/15 03:34:39;;;;;;;10.32;3.08;;;34.20;26.30;;;;;;4251046;33;20678;-36
2021/07/15 03:37:06;;;;;;;13.38;3.42;;;34.50;26.00;;;;;;4285989;33;20072;-36
2021/07/15 03:39:33;;;;;;;10.85;3.08;;;34.50;25.90;;;;;;4272554;33;20127;-37
2021/07/15 03:41:59;;;;;;;8.30;2.40;;;34.70;25.80;;;;;;4284497;33;20560;-36
2021/07/15 03:44:26;;;;;;;6.50;1.73;;;34.80;25.70;;;;;;4284477;33;20154;-36
2021/07/15 03:46:53;;;;;;;11.63;2.20;;;34.80;26.00;;;;;;4299392;33;20110;-36
2021/07/15 03:49:22;;;;;;;11.30;2.10;;;34.70;25.30;;;;;;4311220;33;20167;-35
2021/07/15 03:51:49;;;;;;;4.47;1.55;;;34.40;25.40;;;;;;4299314;33;20162;-36
2021/07/15 03:54:17;;;;;;;5.30;1.60;;;34.30;25.50;;;;;;4322172;33;20107;-37
2021/07/15 03:56:44;;;;;;;10.20;2.05;;;34.20;25.60;;;;;;4317232;33;20121;-36
2021/07/15 03:59:11;;;;;;;8.55;1.58;;;34.00;25.60;;;;;;4316992;33;20110;-36
2021/07/15 04:01:37;;;;;;;5.28;1.42;;;34.10;25.90;;;;;;4342508;33;20161;-36
2021/07/15 04:04:08;;;;;;;7.68;1.40;;;34.20;25.40;;;;;;4329253;33;20062;-36
2021/07/15 04:06:35;;;;;;;10.05;1.40;;;34.20;25.40;;;;;;4329767;33;20580;-35
2021/07/15 04:09:04;;;;;;;6.10;1.80;;;34.20;25.40;;;;;;4329031;33;20074;-37
2021/07/15 04:11:30;;;;;;;5.10;1.60;;;34.50;25.60;;;;;;4316465;33;20092;-36
2021/07/15 04:13:57;;;;;;;9.38;1.40;;;35.00;25.30;;;;;;4342789;33;20109;-35
2021/07/15 04:17:06;;;;;;;2.67;1.30;;;35.30;24.70;;;;;;4317145;33;20133;-37
2021/07/15 04:19:35;;;;;;;6.50;1.20;;;35.50;24.30;;;;;;4342353;33;20078;-37
2021/07/15 04:22:06;;;;;;;8.77;1.83;;;35.30;24.00;;;;;;4329462;33;20077;-37
2021/07/15 04:24:33;;;;;;;6.07;2.87;;;35.10;24.50;;;;;;4345039;33;20165;-37
2021/07/15 04:27:01;;;;;;;3.15;1.45;;;34.90;25.60;;;;;;4286449;33;20520;-37
2021/07/15 04:29:27;;;;;;;17.25;4.28;;;34.90;25.20;;;;;;4286962;33;20166;-37
2021/07/15 04:32:01;;;;;;;9.45;2.83;;;34.90;26.00;;;;;;4286795;33;20060;-37
2021/07/15 04:34:27;;;;;;;4.35;1.20;;;35.00;25.90;;;;;;4286710;33;20077;-36
2021/07/15 04:36:54;;;;;;;9.65;1.15;;;35.10;24.80;;;;;;4274897;33;20500;-36
2021/07/15 04:39:25;;;;;;;5.03;1.10;;;35.00;23.90;;;;;;4286658;33;20143;-37
2021/07/15 04:41:51;;;;;;;3.85;1.12;;;35.00;24.10;;;;;;4275089;33;20095;-35
2021/07/15 04:44:18;;;;;;;2.35;0.98;;;35.10;23.60;;;;;;4257907;33;20088;-35
2021/07/15 04:46:44;;;;;;;5.22;0.95;;;35.10;23.40;;;;;;4257809;33;20072;-36
2021/07/15 04:49:11;;;;;;;7.07;2.60;;;35.00;23.30;;;;;;4257863;33;20130;-37
2021/07/15 04:51:41;;;;;;;4.43;0.80;;;34.90;23.00;;;;;;4269594;33;20545;-36
2021/07/15 04:54:08;;;;;;;9.90;1.73;;;35.00;23.00;;;;;;4246115;33;20140;-36
2021/07/15 04:56:35;;;;;;;2.80;0.82;;;34.90;23.10;;;;;;4246202;33;20528;-45
2021/07/15 04:59:02;;;;;;;5.82;1.75;;;34.90;23.00;;;;;;4269218;33;20556;-36
2021/07/15 05:01:29;;;;;;;6.60;0.80;;;34.90;22.90;;;;;;4269266;33;20060;-36
2021/07/15 05:03:56;;;;;;;3.08;0.93;;;34.90;22.40;;;;;;4266972;33;20115;-36
2021/07/15 05:06:22;;;;;;;3.92;0.70;;;34.90;22.80;;;;;;4298088;33;20520;-37
2021/07/15 05:08:49;;;;;;;5.47;0.65;;;35.00;22.40;;;;;;4298010;33;20099;-37
2021/07/15 05:11:16;;;;;;;6.00;0.93;;;34.90;21.90;;;;;;4286374;33;20072;-38
2021/07/15 05:13:42;;;;;;;2.20;0.95;;;34.90;22.30;;;;;;4286022;33;20090;-37
2021/07/15 05:16:09;;;;;;;1.65;0.93;;;34.90;22.00;;;;;;4298895;33;20086;-38
2021/07/15 05:18:35;;;;;;;3.97;0.70;;;34.90;21.90;;;;;;4312441;33;20091;-37
2021/07/15 05:21:02;;;;;;;8.85;1.05;;;34.80;21.80;;;;;;4312692;33;20111;-37
2021/07/15 05:23:29;;;;;;;3.12;1.02;;;34.80;22.00;;;;;;4300587;33;20056;-37
2021/07/15 05:25:56;;;;;;;2.37;0.82;;;34.90;22.10;;;;;;4283676;33;20060;-37
2021/07/15 05:28:23;;;;;;;1.92;0.60;;;34.90;21.50;;;;;;4271443;33;20485;-37
2021/07/15 05:30:50;;;;;;;5.70;1.33;;;34.90;21.60;;;;;;4283675;33;20100;-37
2021/07/15 05:33:16;;;;;;;3.92;1.17;;;35.00;21.60;;;;;;4282983;33;20579;-37
2021/07/15 05:35:43;;;;;;;4.70;1.27;;;35.00;21.60;;;;;;4295370;33;20071;-36
2021/07/15 05:38:10;;;;;;;2.62;1.00;;;35.10;22.00;;;;;;4273881;33;20079;-36
2021/07/15 05:40:37;;;;;;;1.92;1.00;;;35.30;21.50;;;;;;4285604;33;20091;-37
2021/07/15 05:43:03;;;;;;;7.20;1.10;;;35.40;21.30;;;;;;4297427;33;20167;-37
2021/07/15 05:45:30;;;;;;;8.02;1.60;;;35.50;21.20;;;;;;4285801;33;20159;-37
2021/07/15 05:47:56;;;;;;;9.57;2.00;;;35.70;21.40;;;;;;4297725;33;20199;-37
2021/07/15 05:50:23;;;;;;;2.85;1.23;;;35.80;21.30;;;;;;4297638;33;20075;-37
2021/07/15 05:52:50;;;;;;;2.58;1.27;;;36.00;20.80;;;;;;4312138;33;20178;-37
2021/07/15 05:55:16;;;;;;;5.45;2.15;;;36.00;20.70;;;;;;4312125;33;20544;-37
2021/07/15 05:57:43;;;;;;;3.97;1.37;;;36.00;21.10;;;;;;4338200;33;20078;-36
2021/07/15 06:00:11;;;;;;;6.78;2.17;;;35.90;21.00;;;;;;4343995;33;20503;-36
2021/07/15 06:02:37;;;;;;;6.25;1.83;;;35.90;21.00;;;;;;4343810;33;20175;-37
2021/07/15 06:05:05;;;;;;;4.80;1.73;;;35.80;21.10;;;;;;4330283;33;20547;-37
2021/07/15 06:07:31;;;;;;;3.20;1.25;;;35.90;20.90;;;;;;4311402;33;20070;-37
2021/07/15 06:09:58;;;;;;;6.35;1.70;;;36.00;20.90;;;;;;4312327;33;20067;-37
2021/07/15 06:12:24;;;;;;;9.27;1.15;;;36.00;20.90;;;;;;4299601;33;20468;-37
2021/07/15 06:14:51;;;;;;;2.83;1.12;;;36.10;20.90;;;;;;4311735;33;20572;-37
2021/07/15 06:17:17;;;;;;;1.25;0.43;;;36.10;20.90;;;;;;4312154;33;20153;-38
2021/07/15 06:19:43;;;;;;;7.10;0.80;;;36.20;20.90;;;;;;4311895;33;20067;-37
2021/07/15 06:22:10;;;;;;;5.97;0.90;;;36.20;20.80;;;;;;4311959;33;20574;-36
2021/07/15 06:24:36;;;;;;;2.85;0.98;;;36.30;20.90;;;;;;4299347;33;20563;-37
2021/07/15 06:27:03;;;;;;;3.35;0.98;;;36.40;20.90;;;;;;4311219;33;20071;-36
2021/07/15 06:29:30;;;;;;;2.80;0.68;;;36.40;20.70;;;;;;4299801;33;20574;-36
2021/07/15 06:31:56;;;;;;;11.73;2.92;;;36.40;20.30;;;;;;4298996;33;20083;-36
2021/07/15 06:34:22;;;;;;;9.77;3.28;;;36.50;25.10;;;;;;4311853;33;20713;-36
2021/07/15 06:36:49;;;;;;;8.15;2.83;;;36.90;26.30;;;;;;4311120;33;20072;-37
2021/07/15 06:39:15;;;;;;;10.43;4.22;;;37.20;26.70;;;;;;4311619;33;20075;-37
2021/07/15 06:41:42;;;;;;;15.77;5.28;;;37.60;27.30;;;;;;4343714;33;20086;-37
2021/07/15 06:44:13;;;;;;;14.43;5.75;;;37.80;27.00;;;;;;4343396;33;20082;-37
2021/07/15 06:46:40;;;;;;;11.45;4.53;;;37.80;27.40;;;;;;4318444;33;20059;-38
2021/07/15 06:49:07;;;;;;;10.48;3.03;;;37.60;26.80;;;;;;4329203;33;20471;-37
2021/07/15 06:51:34;;;;;;;10.27;2.33;;;37.40;26.90;;;;;;4343243;33;20115;-37
2021/07/15 06:54:00;;;;;;;7.95;2.12;;;37.10;27.30;;;;;;4329470;33;20078;-37
2021/07/15 06:56:27;;;;;;;9.82;2.80;;;37.00;27.70;;;;;;4343458;33;20491;-37
2021/07/15 06:58:54;;;;;;;10.38;1.58;;;36.90;27.20;;;;;;4343448;33;20151;-38
2021/07/15 07:01:21;;;;;;;4.30;1.55;;;36.70;26.70;;;;;;4343337;33;20688;-37
2021/07/15 07:03:47;;;;;;;7.75;1.67;;;36.70;27.70;;;;;;4343236;33;20070;-37
2021/07/15 07:06:13;;;;;;;8.70;1.58;;;37.00;28.50;;;;;;4329429;33;20552;-38
2021/07/15 07:08:40;;;;;;;5.85;1.60;;;37.40;28.10;;;;;;4329661;33;20090;-38
2021/07/15 07:11:06;;;;;;;7.68;1.42;;;37.90;27.80;;;;;;4343009;33;20055;-38
2021/07/15 07:13:33;;;;;;;8.90;2.22;;;38.20;27.60;;;;;;4343204;33;20550;-38
2021/07/15 07:16:00;;;;;;;4.95;1.27;;;38.30;26.90;;;;;;4343086;33;20077;-36
2021/07/15 07:18:26;;;;;;;4.00;1.48;;;38.40;27.80;;;;;;4342991;33;20058;-37
2021/07/15 07:20:53;;;;;;;5.03;1.20;;;38.50;27.70;;;;;;4317012;33;20565;-37
2021/07/15 07:23:20;;;;;;;8.23;2.03;;;38.50;27.80;;;;;;4343217;33;20058;-37
2021/07/15 07:25:46;;;;;;;6.20;1.80;;;38.50;28.30;;;;;;4342970;33;20183;-37
2021/07/15 07:28:15;;;;;;;3.03;1.00;;;38.40;28.50;;;;;;4342995;33;20075;-39
2021/07/15 07:30:41;;;;;;;3.95;1.33;;;38.00;28.60;;;;;;4342620;33;20071;-37
2021/07/15 07:33:08;;;;;;;4.43;1.23;;;37.80;28.80;;;;;;4329320;33;20066;-37
2021/07/15 07:35:34;;;;;;;3.72;0.90;;;37.70;28.90;;;;;;4341327;33;20146;-36
2021/07/15 07:38:01;;;;;;;3.65;1.00;;;37.70;28.90;;;;;;4342586;33;20085;-36
2021/07/15 07:40:27;;;;;;;2.90;1.23;;;37.80;28.90;;;;;;4329109;33;20524;-37
2021/07/15 07:42:54;;;;;;;6.43;1.02;;;37.90;28.60;;;;;;4342518;33;20070;-37
2021/07/15 07:45:21;;;;;;;5.68;1.25;;;37.80;28.00;;;;;;4342550;33;20074;-38
2021/07/15 07:47:47;;;;;;;6.07;1.45;;;37.80;27.90;;;;;;4329013;33;20067;-37
2021/07/15 07:50:14;;;;;;;6.35;1.20;;;37.80;27.80;;;;;;4342675;33;20118;-38
2021/07/15 07:52:41;;;;;;;9.07;2.33;;;37.70;27.30;;;;;;4342424;33;20101;-38
2021/07/15 07:55:09;;;;;;;3.95;1.10;;;37.60;27.50;;;;;;4328978;33;20062;-39
2021/07/15 07:57:36;;;;;;;5.05;1.20;;;37.40;27.90;;;;;;4344367;32;20063;-37
2021/07/15 08:00:13;;;;;;;3.25;1.12;;;37.30;27.80;;;;;;4345845;33;20527;-37
2021/07/15 08:02:41;;;;;;;5.18;1.70;;;37.20;28.50;;;;;;4345748;33;20070;-36
2021/07/15 08:05:09;;;;;;;7.97;1.35;;;37.10;28.40;;;;;;4298849;33;20626;-38
2021/07/15 08:07:36;;;;;;;4.97;0.80;;;37.00;28.40;;;;;;4298927;33;20083;-37
2021/07/15 08:10:06;;;;;;;5.87;1.58;;;36.90;28.70;;;;;;4287116;33;20524;-36
2021/07/15 08:12:32;;;;;;;11.77;1.00;;;36.70;28.40;;;;;;4286898;33;20539;-37
2021/07/15 08:14:59;;;;;;;2.25;1.00;;;36.60;28.50;;;;;;4298821;33;20107;-37
2021/07/15 08:17:25;;;;;;;4.80;1.30;;;36.50;29.80;;;;;;4298900;33;20177;-37
2021/07/15 08:19:51;;;;;;;3.87;1.23;;;36.20;28.90;;;;;;4269749;33;20115;-37
2021/07/15 08:22:18;;;;;;;5.60;0.90;;;36.00;29.80;;;;;;4269892;33;20108;-37
2021/07/15 08:24:44;;;;;;;5.03;0.80;;;35.70;29.80;;;;;;4269733;33;20083;-37
2021/07/15 08:27:11;;;;;;;2.35;0.70;;;35.70;28.70;;;;;;4269682;33;20669;-37
2021/07/15 08:29:37;;;;;;;1.67;0.68;;;35.50;29.50;;;;;;4270110;33;20551;-38
2021/07/15 08:32:06;;;;;;;2.40;0.80;;;35.50;29.60;;;;;;4269783;33;20083;-37
2021/07/15 08:34:32;;;;;;;6.15;0.80;;;35.60;30.00;;;;;;4270036;33;20079;-38
2021/07/15 08:36:58;;;;;;;5.43;1.15;;;35.50;30.60;;;;;;4269566;33;20516;-38
2021/07/15 08:39:25;;;;;;;2.95;1.33;;;35.50;31.00;;;;;;4269629;33;20093;-37
2021/07/15 08:41:52;;;;;;;3.58;1.48;;;35.50;29.80;;;;;;4275608;33;20205;-37
2021/07/15 08:44:18;;;;;;;8.10;1.10;;;35.60;29.50;;;;;;4298610;33;20630;-38
2021/07/15 08:46:47;;;;;;;5.62;0.88;;;35.60;28.90;;;;;;4298185;33;20132;-37
2021/07/15 08:49:16;;;;;;;5.00;0.90;;;35.70;28.00;;;;;;4298951;33;20147;-38
2021/07/15 08:51:44;;;;;;;4.57;0.93;;;35.80;27.90;;;;;;4312248;33;20126;-37
2021/07/15 08:54:16;;;;;;;5.18;1.20;;;35.90;27.10;;;;;;4330154;33;20105;-38
2021/07/15 08:56:47;;;;;;;6.00;1.40;;;35.90;26.90;;;;;;4330128;33;20500;-36
2021/07/15 08:59:17;;;;;;;4.45;0.98;;;35.90;26.50;;;;;;4330424;33;20099;-37
2021/07/15 09:01:48;;;;;;;6.37;1.17;;;35.90;25.80;;;;;;4330128;33;20074;-38
2021/07/15 09:04:15;;;;;;;6.28;0.95;;;35.80;25.60;;;;;;4316202;33;20179;-36
2021/07/15 09:06:42;;;;;;;6.03;0.90;;;35.70;26.10;;;;;;4316473;33;20110;-37
2021/07/15 09:09:09;;;;;;;5.55;1.00;;;35.60;26.40;;;;;;4343251;33;20063;-37
2021/07/15 09:11:37;;;;;;;3.15;0.80;;;35.50;25.30;;;;;;4331153;33;20088;-36
2021/07/15 09:14:17;;;;;;;5.18;0.80;;;35.30;25.90;;;;;;4330714;33;20209;-36
2021/07/15 09:16:53;;;;;;;3.28;0.93;;;35.20;25.30;;;;;;4331161;33;20149;-37
2021/07/15 09:19:22;;;;;;;3.50;0.85;;;35.20;26.00;;;;;;4331557;33;20074;-37
2021/07/15 09:21:48;;;;;;;2.58;0.68;;;35.10;26.30;;;;;;4330899;33;20062;-36
2021/07/15 09:24:33;;;;;;;4.18;0.70;;;35.10;26.30;;;;;;4344792;33;20078;-37
2021/07/15 09:27:18;;;;;;;5.55;0.80;;;35.30;25.70;;;;;;4344000;33;20073;-37
2021/07/15 09:29:45;;;;;;;5.60;0.82;;;35.50;26.50;;;;;;4330892;33;20086;-37
2021/07/15 09:32:16;;;;;;;4.90;0.80;;;35.80;26.00;;;;;;4330655;33;20066;-37
2021/07/15 09:34:43;;;;;;;4.07;0.70;;;36.10;25.80;;;;;;4330370;33;20455;-37
2021/07/15 09:37:15;;;;;;;2.97;0.70;;;36.40;25.60;;;;;;4344643;33;20499;-38
2021/07/15 09:39:47;;;;;;;2.42;0.60;;;36.60;24.90;;;;;;4306233;33;20664;-39
2021/07/15 09:42:20;;;;;;;6.87;1.02;;;36.70;25.60;;;;;;4344725;33;20093;-39
2021/07/15 09:44:52;;;;;;;4.13;0.70;;;36.80;27.20;;;;;;4343886;33;20082;-38
2021/07/15 09:47:34;;;;;;;4.00;0.80;;;37.00;26.60;;;;;;4344021;33;20158;-37
2021/07/15 09:50:23;;;;;;;2.25;0.77;;;37.00;25.70;;;;;;4311639;33;20083;-38
2021/07/15 09:52:49;;;;;;;2.85;0.80;;;36.70;25.50;;;;;;4311616;33;20087;-38
2021/07/15 09:55:21;;;;;;;4.07;0.95;;;36.60;26.10;;;;;;4300108;33;20503;-38
2021/07/15 09:58:03;;;;;;;5.10;0.70;;;36.60;25.20;;;;;;4306390;33;20070;-38
2021/07/15 10:00:41;;;;;;;5.57;1.10;;;36.50;25.00;;;;;;4304663;33;20501;-37
2021/07/15 10:03:11;;;;;;;5.97;0.90;;;36.50;24.30;;;;;;4302457;33;20067;-37
2021/07/15 10:05:39;;;;;;;5.85;0.90;;;36.50;24.30;;;;;;4326689;33;20063;-38
2021/07/15 10:08:10;;;;;;;16.33;1.45;;;36.40;24.10;;;;;;4312110;33;20110;-37
2021/07/15 10:10:38;;;;;;;11.48;1.83;;;36.40;24.50;;;;;;4282628;33;20067;-37
2021/07/15 10:13:18;;;;;;;4.70;1.00;;;36.50;24.20;;;;;;4282865;33;20087;-37
2021/07/15 10:15:46;;;;;;;4.70;0.82;;;36.60;24.30;;;;;;4283116;33;20079;-37
2021/07/15 10:18:12;;;;;;;7.72;1.20;;;36.70;24.80;;;;;;4283198;33;20079;-37
2021/07/15 10:20:54;;;;;;;3.47;0.65;;;36.70;24.60;;;;;;4263598;33;20469;-36
2021/07/15 10:23:35;;;;;;;5.82;0.85;;;36.80;24.10;;;;;;4286925;33;20079;-37
2021/07/15 10:26:02;;;;;;;4.55;1.10;;;36.80;25.80;;;;;;4285405;33;20241;-37
2021/07/15 10:28:29;;;;;;;7.65;1.20;;;36.80;25.30;;;;;;4297149;33;20064;-37
2021/07/15 10:31:01;;;;;;;5.03;0.90;;;36.80;24.90;;;;;;4285136;33;20091;-37
2021/07/15 10:33:28;;;;;;;2.67;0.80;;;36.80;25.10;;;;;;4285354;33;20076;-37
2021/07/15 10:35:56;;;;;;;4.68;1.30;;;36.80;25.10;;;;;;4297256;33;20157;-36
2021/07/15 10:38:22;;;;;;;1.17;0.90;;;36.70;26.10;;;;;;4273395;33;20079;-37
2021/07/15 10:40:50;;;;;;;6.87;1.17;;;36.70;25.10;;;;;;4290050;33;20095;-37
2021/07/15 10:43:16;;;;;;;1.73;1.00;;;37.00;25.40;;;;;;4315444;33;20135;-37
2021/07/15 10:45:44;;;;;;;6.85;1.00;;;37.20;24.80;;;;;;4315313;33;20071;-37
2021/07/15 10:48:13;;;;;;;1.30;0.80;;;37.30;24.40;;;;;;4302985;33;20074;-36
2021/07/15 10:50:40;;;;;;;8.20;0.80;;;37.40;23.90;;;;;;4287398;33;20075;-36
2021/07/15 10:53:07;;;;;;;3.08;0.80;;;37.50;24.40;;;;;;4311634;33;20081;-37
2021/07/15 10:55:34;;;;;;;5.28;0.95;;;37.70;24.70;;;;;;4299258;33;20055;-37
2021/07/15 10:58:00;;;;;;;3.42;1.00;;;37.80;23.90;;;;;;4311552;33;20092;-38
2021/07/15 11:00:28;;;;;;;2.28;0.90;;;37.90;23.60;;;;;;4311030;33;20483;-37
2021/07/15 11:03:11;;;;;;;4.22;0.90;;;37.80;24.50;;;;;;4299344;33;20063;-38
2021/07/15 11:05:50;;;;;;;4.93;0.90;;;37.80;24.40;;;;;;4311184;33;20067;-37
2021/07/15 11:08:17;;;;;;;5.95;0.90;;;37.80;24.30;;;;;;4319424;33;20155;-38
2021/07/15 11:10:44;;;;;;;8.32;1.40;;;37.80;24.50;;;;;;4325752;33;20074;-38
2021/07/15 11:13:11;;;;;;;4.07;1.20;;;37.90;24.50;;;;;;4313511;33;20078;-37
2021/07/15 11:15:57;;;;;;;5.78;1.15;;;38.10;24.20;;;;;;4325526;33;20071;-38
2021/07/15 11:18:40;;;;;;;19.12;2.47;;;38.40;24.20;;;;;;4325769;33;20094;-38
2021/07/15 11:21:30;;;;;;;4.68;1.33;;;38.80;23.80;;;;;;4330195;33;20141;-37
2021/07/15 11:24:05;;;;;;;2.67;0.82;;;39.10;23.70;;;;;;4343250;33;20067;-36
2021/07/15 11:26:38;;;;;;;5.15;0.82;;;39.20;23.70;;;;;;4343001;33;20108;-37
2021/07/15 11:29:05;;;;;;;1.42;1.00;;;39.20;23.50;;;;;;4310887;33;20509;-37
2021/07/15 11:31:48;;;;;;;2.33;1.00;;;39.20;23.80;;;;;;4312587;33;20546;-37
2021/07/15 11:34:36;;;;;;;7.53;1.35;;;39.10;23.90;;;;;;4302528;33;20079;-37
2021/07/15 11:37:27;;;;;;;4.32;1.70;;;39.20;24.20;;;;;;4314474;33;20611;-37
2021/07/15 11:39:53;;;;;;;1.95;1.00;;;39.50;24.20;;;;;;4313867;33;20473;-38
2021/07/15 11:42:21;;;;;;;4.43;1.10;;;39.70;24.00;;;;;;4302051;33;20067;-38
2021/07/15 11:45:03;;;;;;;4.05;1.00;;;39.70;23.00;;;;;;4314286;33;20079;-37
2021/07/15 11:47:52;;;;;;;5.35;1.30;;;39.60;23.00;;;;;;4284550;33;20071;-38
2021/07/15 11:50:28;;;;;;;5.10;0.90;;;39.30;23.20;;;;;;4285244;33;20064;-38
2021/07/15 11:53:16;;;;;;;4.57;1.50;;;39.10;23.30;;;;;;4284445;33;20135;-38
2021/07/15 11:55:44;;;;;;;3.75;1.00;;;39.00;23.40;;;;;;4284621;33;20097;-36
2021/07/15 11:58:47;;;;;;;5.28;1.10;;;39.00;23.80;;;;;;4264292;33;20088;-38
2021/07/15 12:01:20;;;;;;;4.43;1.10;;;39.00;23.50;;;;;;4270486;33;20758;-45
2021/07/15 12:04:09;;;;;;;6.10;1.20;;;39.00;23.40;;;;;;4270382;33;20144;-38
2021/07/15 12:06:42;;;;;;;1.50;0.85;;;39.00;23.40;;;;;;4284854;33;20098;-38
2021/07/15 12:09:11;;;;;;;4.95;1.00;;;39.00;23.30;;;;;;4326201;33;20067;-36
2021/07/15 12:11:42;;;;;;;4.43;1.10;;;38.90;23.70;;;;;;4328366;33;20648;-38
2021/07/15 12:14:09;;;;;;;5.90;1.20;;;38.90;24.10;;;;;;4328172;33;20081;-38
2021/07/15 12:16:41;;;;;;;11.07;1.58;;;39.20;24.60;;;;;;4327902;33;20178;-38
2021/07/15 12:19:09;;;;;;;2.83;1.12;;;39.40;23.90;;;;;;4341105;33;20077;-38
2021/07/15 12:21:36;;;;;;;2.67;1.42;;;39.50;23.70;;;;;;4345340;32;20133;-37
2021/07/15 12:24:14;;;;;;;1.37;1.10;;;39.30;23.50;;;;;;4345438;32;20070;-37
2021/07/15 12:26:40;;;;;;;6.60;1.80;;;39.10;23.50;;;;;;4345342;32;20093;-37
2021/07/15 12:29:12;;;;;;;6.53;1.45;;;39.00;23.50;;;;;;4343238;33;20082;-37
2021/07/15 12:31:38;;;;;;;6.18;1.55;;;39.10;23.70;;;;;;4343594;33;20485;-38
2021/07/15 12:34:07;;;;;;;3.33;1.65;;;39.20;23.60;;;;;;4343550;33;20062;-37
2021/07/15 12:36:35;;;;;;;3.70;1.25;;;39.30;23.20;;;;;;4345278;32;20051;-36
2021/07/15 12:39:08;;;;;;;1.30;1.20;;;39.40;23.20;;;;;;4331267;33;20061;-37
2021/07/15 12:41:36;;;;;;;;;;;39.40;23.30;;;;;;4344124;33;20145;-37
2021/07/15 12:44:14;;;;;;;3.90;1.60;;;39.30;23.20;;;;;;4344312;32;20424;-37
2021/07/15 12:46:46;;;;;;;2.20;1.25;;;39.30;23.20;;;;;;4343264;33;20063;-37
2021/07/15 12:49:23;;;;;;;2.00;1.30;;;39.30;23.20;;;;;;4344658;32;20110;-38
2021/07/15 12:51:51;;;;;;;4.37;1.60;;;39.20;23.10;;;;;;4345035;33;20171;-38
2021/07/15 12:54:34;;;;;;;2.28;1.48;;;39.20;23.30;;;;;;4345045;32;20058;-39
2021/07/15 12:57:04;;;;;;;2.72;1.48;;;39.20;23.60;;;;;;4343415;32;20083;-38
2021/07/15 12:59:31;;;;;;;4.20;1.40;;;39.10;23.60;;;;;;4328632;33;20137;-36
2021/07/15 13:01:57;;;;;;;1.48;1.35;;;39.20;23.80;;;;;;4328618;33;20126;-37